Terminal Aerodrome Forecast
Issued by NWS

Home | Current Version | Previous Version | Text Only | Print | Product List | Glossary On
Versions: 1 2 3 4 5 6 7 8 9 10 11 12 13 14 15 16 17 18 19 20 21 22 23
000
FTUS45 KPSR 281100
TAFIPL
TAF
KIPL 281120Z 2812/2912 27003KT P6SM SCT250
      TEMPO 2812/2815 1SM BR
     FM281800 31004KT P6SM BKN250
     FM290000 27004KT P6SM SCT150 OVC250=

USA.gov is the U.S. government's official web portal to all federal, state and local government web resources and services.